sensor_id;sensor_type;location;lat;lon;timestamp;temperature;humidity
1429;DHT22;708;51.442;7.016;2023-03-21T00:02:23;12.50;99.90
1429;DHT22;708;51.442;7.016;2023-03-21T00:04:50;12.50;99.90
1429;DHT22;708;51.442;7.016;2023-03-21T00:07:17;12.50;1.00
1429;DHT22;708;51.442;7.016;2023-03-21T00:09:44;12.50;1.00
1429;DHT22;708;51.442;7.016;2023-03-21T00:12:11;12.50;1.00
1429;DHT22;708;51.442;7.016;2023-03-21T00:14:38;12.50;1.00
1429;DHT22;708;51.442;7.016;2023-03-21T00:17:06;12.50;1.00
1429;DHT22;708;51.442;7.016;2023-03-21T00:19:35;12.50;99.90
1429;DHT22;708;51.442;7.016;2023-03-21T00:22:03;12.50;99.90
1429;DHT22;708;51.442;7.016;2023-03-21T00:24:30;12.50;99.90
1429;DHT22;708;51.442;7.016;2023-03-21T00:26:56;12.60;99.90
1429;DHT22;708;51.442;7.016;2023-03-21T00:29:23;12.50;99.90
1429;DHT22;708;51.442;7.016;2023-03-21T00:31:50;12.50;99.90
1429;DHT22;708;51.442;7.016;2023-03-21T00:34:18;12.50;99.90
1429;DHT22;708;51.442;7.016;2023-03-21T00:36:45;12.50;99.90
1429;DHT22;708;51.442;7.016;2023-03-21T00:39:11;12.50;99.90
1429;DHT22;708;51.442;7.016;2023-03-21T00:41:38;12.40;99.90
1429;DHT22;708;51.442;7.016;2023-03-21T00:44:05;12.40;99.90
1429;DHT22;708;51.442;7.016;2023-03-21T00:46:32;12.40;99.90
1429;DHT22;708;51.442;7.016;2023-03-21T00:49:00;12.40;99.90
1429;DHT22;708;51.442;7.016;2023-03-21T00:51:28;12.40;99.90
1429;DHT22;708;51.442;7.016;2023-03-21T00:53:56;12.40;99.90
1429;DHT22;708;51.442;7.016;2023-03-21T00:56:23;12.40;99.90
1429;DHT22;708;51.442;7.016;2023-03-21T00:58:49;12.40;99.90
1429;DHT22;708;51.442;7.016;2023-03-21T01:01:17;12.40;99.90
1429;DHT22;708;51.442;7.016;2023-03-21T01:03:44;12.40;99.90
1429;DHT22;708;51.442;7.016;2023-03-21T01:06:16;12.40;99.90
1429;DHT22;708;51.442;7.016;2023-03-21T01:08:47;12.40;99.90
1429;DHT22;708;51.442;7.016;2023-03-21T01:11:17;12.40;1.00
1429;DHT22;708;51.442;7.016;2023-03-21T01:13:45;12.40;1.00
1429;DHT22;708;51.442;7.016;2023-03-21T01:16:12;12.40;1.00
1429;DHT22;708;51.442;7.016;2023-03-21T01:18:40;12.40;1.00
1429;DHT22;708;51.442;7.016;2023-03-21T01:21:10;12.40;1.00
1429;DHT22;708;51.442;7.016;2023-03-21T01:23:38;12.40;99.90
1429;DHT22;708;51.442;7.016;2023-03-21T01:26:08;12.30;99.90
1429;DHT22;708;51.442;7.016;2023-03-21T01:28:35;12.30;99.90
1429;DHT22;708;51.442;7.016;2023-03-21T01:31:04;12.30;99.90
1429;DHT22;708;51.442;7.016;2023-03-21T01:33:31;12.30;99.90
1429;DHT22;708;51.442;7.016;2023-03-21T01:35:59;12.40;99.90
1429;DHT22;708;51.442;7.016;2023-03-21T01:38:26;12.40;54.10
1429;DHT22;708;51.442;7.016;2023-03-21T01:40:53;12.30;1.00
1429;DHT22;708;51.442;7.016;2023-03-21T01:43:24;12.30;4.40
1429;DHT22;708;51.442;7.016;2023-03-21T01:46:19;12.30;2.70
1429;DHT22;708;51.442;7.016;2023-03-21T01:48:48;12.30;99.90
1429;DHT22;708;51.442;7.016;2023-03-21T01:51:16;12.30;99.90
1429;DHT22;708;51.442;7.016;2023-03-21T01:53:44;12.30;99.90
1429;DHT22;708;51.442;7.016;2023-03-21T01:56:17;12.30;99.90
1429;DHT22;708;51.442;7.016;2023-03-21T01:58:47;12.40;99.90
1429;DHT22;708;51.442;7.016;2023-03-21T02:01:15;12.30;99.90
1429;DHT22;708;51.442;7.016;2023-03-21T02:03:45;12.40;99.90
1429;DHT22;708;51.442;7.016;2023-03-21T02:06:21;12.30;99.90
1429;DHT22;708;51.442;7.016;2023-03-21T02:08:49;12.30;99.90
1429;DHT22;708;51.442;7.016;2023-03-21T02:11:17;12.30;99.90
1429;DHT22;708;51.442;7.016;2023-03-21T02:13:45;12.40;99.90
1429;DHT22;708;51.442;7.016;2023-03-21T02:16:17;12.30;99.90
1429;DHT22;708;51.442;7.016;2023-03-21T02:18:54;12.30;99.90
1429;DHT22;708;51.442;7.016;2023-03-21T02:27:39;12.20;99.90
1429;DHT22;708;51.442;7.016;2023-03-21T02:30:27;12.20;99.90
1429;DHT22;708;51.442;7.016;2023-03-21T02:33:19;12.20;1.00
1429;DHT22;708;51.442;7.016;2023-03-21T02:36:04;12.20;1.00
1429;DHT22;708;51.442;7.016;2023-03-21T02:38:37;12.20;59.50
1429;DHT22;708;51.442;7.016;2023-03-21T02:41:15;12.20;99.90
1429;DHT22;708;51.442;7.016;2023-03-21T02:43:46;12.10;1.00
1429;DHT22;708;51.442;7.016;2023-03-21T02:46:17;12.10;99.90
1429;DHT22;708;51.442;7.016;2023-03-21T02:48:48;12.10;99.90
1429;DHT22;708;51.442;7.016;2023-03-21T02:51:20;12.10;1.00
1429;DHT22;708;51.442;7.016;2023-03-21T02:53:52;12.10;1.00
1429;DHT22;708;51.442;7.016;2023-03-21T02:56:21;12.10;7.70
1429;DHT22;708;51.442;7.016;2023-03-21T02:58:51;12.10;45.70
1429;DHT22;708;51.442;7.016;2023-03-21T03:01:19;12.10;1.00
1429;DHT22;708;51.442;7.016;2023-03-21T03:03:45;12.10;1.00
1429;DHT22;708;51.442;7.016;2023-03-21T03:06:15;12.10;1.00
1429;DHT22;708;51.442;7.016;2023-03-21T03:09:03;12.10;30.00
1429;DHT22;708;51.442;7.016;2023-03-21T03:11:36;12.10;36.40
1429;DHT22;708;51.442;7.016;2023-03-21T03:14:13;12.00;99.90
1429;DHT22;708;51.442;7.016;2023-03-21T03:16:48;12.00;99.90
1429;DHT22;708;51.442;7.016;2023-03-21T03:19:24;12.00;99.90
1429;DHT22;708;51.442;7.016;2023-03-21T03:21:58;12.00;99.90
1429;DHT22;708;51.442;7.016;2023-03-21T03:24:31;12.00;99.90
1429;DHT22;708;51.442;7.016;2023-03-21T03:27:01;12.00;99.90
1429;DHT22;708;51.442;7.016;2023-03-21T03:29:31;12.00;99.90
1429;DHT22;708;51.442;7.016;2023-03-21T03:32:01;12.00;99.90
1429;DHT22;708;51.442;7.016;2023-03-21T03:34:32;12.00;99.90
1429;DHT22;708;51.442;7.016;2023-03-21T03:37:05;12.00;99.90
1429;DHT22;708;51.442;7.016;2023-03-21T03:39:38;12.00;99.90
1429;DHT22;708;51.442;7.016;2023-03-21T03:42:09;12.10;99.90
1429;DHT22;708;51.442;7.016;2023-03-21T03:44:39;12.00;99.10
1429;DHT22;708;51.442;7.016;2023-03-21T03:47:08;12.00;99.90
1429;DHT22;708;51.442;7.016;2023-03-21T03:49:37;12.00;99.90
1429;DHT22;708;51.442;7.016;2023-03-21T03:52:09;12.00;62.80
1429;DHT22;708;51.442;7.016;2023-03-21T03:54:41;12.00;69.90
1429;DHT22;708;51.442;7.016;2023-03-21T03:57:09;11.90;48.60
1429;DHT22;708;51.442;7.016;2023-03-21T03:59:40;11.90;95.00
1429;DHT22;708;51.442;7.016;2023-03-21T04:02:07;11.80;97.80
1429;DHT22;708;51.442;7.016;2023-03-21T04:04:35;11.90;99.90
1429;DHT22;708;51.442;7.016;2023-03-21T04:07:02;11.80;99.90
1429;DHT22;708;51.442;7.016;2023-03-21T04:09:29;11.90;67.70
1429;DHT22;708;51.442;7.016;2023-03-21T04:11:58;11.90;35.40
1429;DHT22;708;51.442;7.016;2023-03-21T04:14:25;11.90;1.00
1429;DHT22;708;51.442;7.016;2023-03-21T04:16:52;11.90;1.00
1429;DHT22;708;51.442;7.016;2023-03-21T04:19:19;11.90;1.00
1429;DHT22;708;51.442;7.016;2023-03-21T04:21:45;11.90;1.00
1429;DHT22;708;51.442;7.016;2023-03-21T04:24:13;11.90;1.00
1429;DHT22;708;51.442;7.016;2023-03-21T04:26:40;11.90;99.90
1429;DHT22;708;51.442;7.016;2023-03-21T04:29:08;11.90;99.90
1429;DHT22;708;51.442;7.016;2023-03-21T04:31:35;11.90;99.90
1429;DHT22;708;51.442;7.016;2023-03-21T04:34:06;11.90;1.00
1429;DHT22;708;51.442;7.016;2023-03-21T04:36:34;11.90;1.00
1429;DHT22;708;51.442;7.016;2023-03-21T04:39:07;11.90;99.90
1429;DHT22;708;51.442;7.016;2023-03-21T04:41:37;12.00;99.90
1429;DHT22;708;51.442;7.016;2023-03-21T04:44:04;12.00;99.90
1429;DHT22;708;51.442;7.016;2023-03-21T04:46:33;12.00;1.00
1429;DHT22;708;51.442;7.016;2023-03-21T04:49:00;12.00;99.90
1429;DHT22;708;51.442;7.016;2023-03-21T04:51:27;12.00;56.00
1429;DHT22;708;51.442;7.016;2023-03-21T04:53:54;12.00;76.50
1429;DHT22;708;51.442;7.016;2023-03-21T04:56:22;12.10;99.90
1429;DHT22;708;51.442;7.016;2023-03-21T04:58:55;12.00;46.00
1429;DHT22;708;51.442;7.016;2023-03-21T05:01:21;12.00;1.00
1429;DHT22;708;51.442;7.016;2023-03-21T05:03:51;12.00;1.00
1429;DHT22;708;51.442;7.016;2023-03-21T05:06:18;12.00;1.00
1429;DHT22;708;51.442;7.016;2023-03-21T05:08:44;12.10;1.00
1429;DHT22;708;51.442;7.016;2023-03-21T05:11:11;12.10;99.90
1429;DHT22;708;51.442;7.016;2023-03-21T05:13:38;12.10;99.90
1429;DHT22;708;51.442;7.016;2023-03-21T05:16:07;12.10;99.90
1429;DHT22;708;51.442;7.016;2023-03-21T05:18:33;12.10;99.90
1429;DHT22;708;51.442;7.016;2023-03-21T05:21:05;12.10;99.90
1429;DHT22;708;51.442;7.016;2023-03-21T05:23:35;12.10;99.90
1429;DHT22;708;51.442;7.016;2023-03-21T05:26:04;12.10;99.90
1429;DHT22;708;51.442;7.016;2023-03-21T05:28:31;12.10;1.00
1429;DHT22;708;51.442;7.016;2023-03-21T05:31:01;12.10;1.00
1429;DHT22;708;51.442;7.016;2023-03-21T05:33:28;12.10;99.90
1429;DHT22;708;51.442;7.016;2023-03-21T05:35:55;12.10;99.90
1429;DHT22;708;51.442;7.016;2023-03-21T05:38:23;12.20;99.90
1429;DHT22;708;51.442;7.016;2023-03-21T05:40:52;12.10;1.00
1429;DHT22;708;51.442;7.016;2023-03-21T05:43:19;12.10;1.00
1429;DHT22;708;51.442;7.016;2023-03-21T05:45:46;12.20;99.90
1429;DHT22;708;51.442;7.016;2023-03-21T05:48:13;12.10;99.90
1429;DHT22;708;51.442;7.016;2023-03-21T05:50:40;12.20;99.90
1429;DHT22;708;51.442;7.016;2023-03-21T05:53:07;12.20;99.90
1429;DHT22;708;51.442;7.016;2023-03-21T05:55:35;12.20;99.90
1429;DHT22;708;51.442;7.016;2023-03-21T05:58:02;12.20;1.00
1429;DHT22;708;51.442;7.016;2023-03-21T06:00:29;12.20;1.00
1429;DHT22;708;51.442;7.016;2023-03-21T06:02:55;12.30;64.10
1429;DHT22;708;51.442;7.016;2023-03-21T06:05:25;12.30;99.90
1429;DHT22;708;51.442;7.016;2023-03-21T06:07:52;12.30;99.90
1429;DHT22;708;51.442;7.016;2023-03-21T06:10:19;12.30;99.90
1429;DHT22;708;51.442;7.016;2023-03-21T06:12:47;12.30;99.90
1429;DHT22;708;51.442;7.016;2023-03-21T06:15:14;12.40;99.90
1429;DHT22;708;51.442;7.016;2023-03-21T06:17:41;12.40;99.90
1429;DHT22;708;51.442;7.016;2023-03-21T06:20:09;12.40;1.00
1429;DHT22;708;51.442;7.016;2023-03-21T06:22:36;12.40;1.00
1429;DHT22;708;51.442;7.016;2023-03-21T06:25:04;12.40;1.00
1429;DHT22;708;51.442;7.016;2023-03-21T06:27:32;12.40;99.90
1429;DHT22;708;51.442;7.016;2023-03-21T06:30:00;12.40;1.00
1429;DHT22;708;51.442;7.016;2023-03-21T06:32:27;12.40;1.00
1429;DHT22;708;51.442;7.016;2023-03-21T06:34:54;12.30;1.00
1429;DHT22;708;51.442;7.016;2023-03-21T06:37:21;12.30;99.90
1429;DHT22;708;51.442;7.016;2023-03-21T06:39:48;12.30;1.00
1429;DHT22;708;51.442;7.016;2023-03-21T06:42:15;12.30;1.00
1429;DHT22;708;51.442;7.016;2023-03-21T06:44:42;12.40;99.90
1429;DHT22;708;51.442;7.016;2023-03-21T06:47:10;12.40;1.00
1429;DHT22;708;51.442;7.016;2023-03-21T06:49:36;12.40;99.90
1429;DHT22;708;51.442;7.016;2023-03-21T06:52:03;12.40;27.00
1429;DHT22;708;51.442;7.016;2023-03-21T06:54:30;12.50;1.00
1429;DHT22;708;51.442;7.016;2023-03-21T06:56:57;12.50;1.00
1429;DHT22;708;51.442;7.016;2023-03-21T06:59:24;12.50;99.90
1429;DHT22;708;51.442;7.016;2023-03-21T07:01:50;12.60;47.40
1429;DHT22;708;51.442;7.016;2023-03-21T07:04:19;12.60;1.00
1429;DHT22;708;51.442;7.016;2023-03-21T07:06:45;12.60;1.00
1429;DHT22;708;51.442;7.016;2023-03-21T07:09:12;12.60;87.50
1429;DHT22;708;51.442;7.016;2023-03-21T07:11:42;12.60;1.00
1429;DHT22;708;51.442;7.016;2023-03-21T07:14:08;12.60;1.00
1429;DHT22;708;51.442;7.016;2023-03-21T07:16:35;12.60;1.00
1429;DHT22;708;51.442;7.016;2023-03-21T07:19:02;12.60;28.80
1429;DHT22;708;51.442;7.016;2023-03-21T07:21:34;12.60;1.00
1429;DHT22;708;51.442;7.016;2023-03-21T07:24:05;12.60;1.00
1429;DHT22;708;51.442;7.016;2023-03-21T07:26:32;12.70;99.90
1429;DHT22;708;51.442;7.016;2023-03-21T07:28:58;12.70;71.50
1429;DHT22;708;51.442;7.016;2023-03-21T07:31:25;12.80;1.00
1429;DHT22;708;51.442;7.016;2023-03-21T07:33:52;12.80;99.90
1429;DHT22;708;51.442;7.016;2023-03-21T07:36:19;12.80;99.90
1429;DHT22;708;51.442;7.016;2023-03-21T07:38:47;12.80;1.00
1429;DHT22;708;51.442;7.016;2023-03-21T07:41:15;12.70;99.90
1429;DHT22;708;51.442;7.016;2023-03-21T07:43:41;12.70;99.90
1429;DHT22;708;51.442;7.016;2023-03-21T07:46:08;12.80;99.90
1429;DHT22;708;51.442;7.016;2023-03-21T07:48:35;12.90;99.90
1429;DHT22;708;51.442;7.016;2023-03-21T07:51:02;13.10;43.00
1429;DHT22;708;51.442;7.016;2023-03-21T07:53:30;13.20;99.90
1429;DHT22;708;51.442;7.016;2023-03-21T07:55:58;13.30;99.90
1429;DHT22;708;51.442;7.016;2023-03-21T07:58:25;13.30;99.90
1429;DHT22;708;51.442;7.016;2023-03-21T08:00:53;13.40;1.00
1429;DHT22;708;51.442;7.016;2023-03-21T08:03:20;13.40;1.00
1429;DHT22;708;51.442;7.016;2023-03-21T08:05:48;13.40;99.90
1429;DHT22;708;51.442;7.016;2023-03-21T08:08:15;13.40;99.90
1429;DHT22;708;51.442;7.016;2023-03-21T08:10:42;13.60;99.90
1429;DHT22;708;51.442;7.016;2023-03-21T08:13:10;13.70;99.90
1429;DHT22;708;51.442;7.016;2023-03-21T08:15:40;13.80;30.40
1429;DHT22;708;51.442;7.016;2023-03-21T08:18:08;14.00;1.00
1429;DHT22;708;51.442;7.016;2023-03-21T08:20:35;13.90;1.00
1429;DHT22;708;51.442;7.016;2023-03-21T08:23:02;13.90;1.00
1429;DHT22;708;51.442;7.016;2023-03-21T08:25:28;14.00;1.00
1429;DHT22;708;51.442;7.016;2023-03-21T08:27:55;14.10;1.00
1429;DHT22;708;51.442;7.016;2023-03-21T08:30:26;14.20;99.90
1429;DHT22;708;51.442;7.016;2023-03-21T08:32:55;14.20;99.90
1429;DHT22;708;51.442;7.016;2023-03-21T08:35:23;14.10;99.90
1429;DHT22;708;51.442;7.016;2023-03-21T08:37:50;14.20;99.90
1429;DHT22;708;51.442;7.016;2023-03-21T08:40:20;14.30;1.00
1429;DHT22;708;51.442;7.016;2023-03-21T08:42:46;14.30;1.00
1429;DHT22;708;51.442;7.016;2023-03-21T08:45:15;14.30;1.00
1429;DHT22;708;51.442;7.016;2023-03-21T08:47:46;14.30;1.40
1429;DHT22;708;51.442;7.016;2023-03-21T08:50:15;14.30;1.00
1429;DHT22;708;51.442;7.016;2023-03-21T08:52:42;14.20;99.90
1429;DHT22;708;51.442;7.016;2023-03-21T08:55:10;14.30;99.90
1429;DHT22;708;51.442;7.016;2023-03-21T08:57:37;14.20;99.90
1429;DHT22;708;51.442;7.016;2023-03-21T09:00:05;14.20;1.00
1429;DHT22;708;51.442;7.016;2023-03-21T09:02:36;14.10;99.90
1429;DHT22;708;51.442;7.016;2023-03-21T09:05:05;13.90;99.90
1429;DHT22;708;51.442;7.016;2023-03-21T09:07:32;13.90;1.00
1429;DHT22;708;51.442;7.016;2023-03-21T09:10:00;13.80;99.90
1429;DHT22;708;51.442;7.016;2023-03-21T09:12:27;13.90;99.90
1429;DHT22;708;51.442;7.016;2023-03-21T09:14:54;13.90;1.00
1429;DHT22;708;51.442;7.016;2023-03-21T09:17:21;14.10;99.90
1429;DHT22;708;51.442;7.016;2023-03-21T09:19:47;14.20;99.90
1429;DHT22;708;51.442;7.016;2023-03-21T09:22:16;14.20;1.00
1429;DHT22;708;51.442;7.016;2023-03-21T09:24:46;14.30;1.00
1429;DHT22;708;51.442;7.016;2023-03-21T09:27:13;14.30;1.00
1429;DHT22;708;51.442;7.016;2023-03-21T09:29:42;14.30;1.00
1429;DHT22;708;51.442;7.016;2023-03-21T09:32:09;14.30;99.90
1429;DHT22;708;51.442;7.016;2023-03-21T09:34:37;14.30;79.60
1429;DHT22;708;51.442;7.016;2023-03-21T09:37:04;14.30;1.00
1429;DHT22;708;51.442;7.016;2023-03-21T09:39:35;14.30;1.00
1429;DHT22;708;51.442;7.016;2023-03-21T09:42:12;14.40;99.90
1429;DHT22;708;51.442;7.016;2023-03-21T09:44:59;14.40;99.90
1429;DHT22;708;51.442;7.016;2023-03-21T09:47:30;14.60;99.90
1429;DHT22;708;51.442;7.016;2023-03-21T09:50:05;14.70;99.90
1429;DHT22;708;51.442;7.016;2023-03-21T09:52:42;14.80;99.90
1429;DHT22;708;51.442;7.016;2023-03-21T09:55:16;14.90;99.90
1429;DHT22;708;51.442;7.016;2023-03-21T09:57:46;15.00;99.90
1429;DHT22;708;51.442;7.016;2023-03-21T10:00:19;15.00;61.80
1429;DHT22;708;51.442;7.016;2023-03-21T10:02:50;15.00;1.00
1429;DHT22;708;51.442;7.016;2023-03-21T10:05:20;14.90;99.90
1429;DHT22;708;51.442;7.016;2023-03-21T10:07:51;14.80;99.90
1429;DHT22;708;51.442;7.016;2023-03-21T10:10:23;14.80;1.00
1429;DHT22;708;51.442;7.016;2023-03-21T10:12:52;14.90;99.90
1429;DHT22;708;51.442;7.016;2023-03-21T10:15:21;15.00;1.00
1429;DHT22;708;51.442;7.016;2023-03-21T10:17:53;15.00;99.90
1429;DHT22;708;51.442;7.016;2023-03-21T10:20:22;15.00;99.90
1429;DHT22;708;51.442;7.016;2023-03-21T10:22:51;15.00;99.90
1429;DHT22;708;51.442;7.016;2023-03-21T10:25:23;15.10;94.30
1429;DHT22;708;51.442;7.016;2023-03-21T10:27:51;15.10;8.10
1429;DHT22;708;51.442;7.016;2023-03-21T10:30:36;15.10;35.80
1429;DHT22;708;51.442;7.016;2023-03-21T10:33:06;15.20;1.00
1429;DHT22;708;51.442;7.016;2023-03-21T10:35:35;15.20;1.00
1429;DHT22;708;51.442;7.016;2023-03-21T10:38:05;14.90;29.40
1429;DHT22;708;51.442;7.016;2023-03-21T10:40:33;14.80;99.90
1429;DHT22;708;51.442;7.016;2023-03-21T10:43:16;14.70;99.90
1429;DHT22;708;51.442;7.016;2023-03-21T10:45:44;14.70;99.90
1429;DHT22;708;51.442;7.016;2023-03-21T10:48:11;14.50;1.00
1429;DHT22;708;51.442;7.016;2023-03-21T10:50:38;14.60;99.90
1429;DHT22;708;51.442;7.016;2023-03-21T10:53:15;14.70;99.90
1429;DHT22;708;51.442;7.016;2023-03-21T10:55:46;14.70;99.90
1429;DHT22;708;51.442;7.016;2023-03-21T10:58:17;14.70;99.90
1429;DHT22;708;51.442;7.016;2023-03-21T11:00:54;14.80;99.90
1429;DHT22;708;51.442;7.016;2023-03-21T11:03:25;14.90;99.90
1429;DHT22;708;51.442;7.016;2023-03-21T11:06:03;14.90;99.90
1429;DHT22;708;51.442;7.016;2023-03-21T11:08:37;14.90;1.00
1429;DHT22;708;51.442;7.016;2023-03-21T11:11:06;14.90;99.90
1429;DHT22;708;51.442;7.016;2023-03-21T11:13:37;15.00;19.80
1429;DHT22;708;51.442;7.016;2023-03-21T11:16:07;15.10;1.00
1429;DHT22;708;51.442;7.016;2023-03-21T11:18:40;15.10;99.90
1429;DHT22;708;51.442;7.016;2023-03-21T11:21:08;15.40;99.90
1429;DHT22;708;51.442;7.016;2023-03-21T11:23:40;15.50;99.90
1429;DHT22;708;51.442;7.016;2023-03-21T11:26:14;15.70;1.00
1429;DHT22;708;51.442;7.016;2023-03-21T11:28:42;16.10;1.00
1429;DHT22;708;51.442;7.016;2023-03-21T11:31:10;16.30;99.90
1429;DHT22;708;51.442;7.016;2023-03-21T11:33:39;16.40;99.90
1429;DHT22;708;51.442;7.016;2023-03-21T11:36:26;16.50;79.80
1429;DHT22;708;51.442;7.016;2023-03-21T11:38:57;16.60;18.10
1429;DHT22;708;51.442;7.016;2023-03-21T11:41:29;16.50;1.00
1429;DHT22;708;51.442;7.016;2023-03-21T11:43:57;16.60;1.00
1429;DHT22;708;51.442;7.016;2023-03-21T11:46:26;16.50;1.00
1429;DHT22;708;51.442;7.016;2023-03-21T11:48:55;16.60;1.00
1429;DHT22;708;51.442;7.016;2023-03-21T11:51:27;16.80;1.00
1429;DHT22;708;51.442;7.016;2023-03-21T11:54:00;16.90;1.00
1429;DHT22;708;51.442;7.016;2023-03-21T11:56:34;17.20;99.90
1429;DHT22;708;51.442;7.016;2023-03-21T11:59:19;17.30;99.90
1429;DHT22;708;51.442;7.016;2023-03-21T12:02:04;17.30;99.90
1429;DHT22;708;51.442;7.016;2023-03-21T12:04:39;17.40;99.90
1429;DHT22;708;51.442;7.016;2023-03-21T12:07:19;17.40;99.90
1429;DHT22;708;51.442;7.016;2023-03-21T12:09:54;17.30;99.90
1429;DHT22;708;51.442;7.016;2023-03-21T12:12:31;17.30;99.90
1429;DHT22;708;51.442;7.016;2023-03-21T12:15:02;17.10;99.90
1429;DHT22;708;51.442;7.016;2023-03-21T12:17:39;16.90;99.90
1429;DHT22;708;51.442;7.016;2023-03-21T12:20:15;16.80;99.90
1429;DHT22;708;51.442;7.016;2023-03-21T12:22:52;16.70;99.90
1429;DHT22;708;51.442;7.016;2023-03-21T12:25:26;16.60;99.90
1429;DHT22;708;51.442;7.016;2023-03-21T12:28:04;16.50;99.90
1429;DHT22;708;51.442;7.016;2023-03-21T12:30:43;16.40;99.90
1429;DHT22;708;51.442;7.016;2023-03-21T12:33:35;16.20;99.90
1429;DHT22;708;51.442;7.016;2023-03-21T12:36:16;15.90;99.90
1429;DHT22;708;51.442;7.016;2023-03-21T12:38:51;15.90;99.90
1429;DHT22;708;51.442;7.016;2023-03-21T12:41:24;15.80;99.90
1429;DHT22;708;51.442;7.016;2023-03-21T12:43:57;15.90;99.90
1429;DHT22;708;51.442;7.016;2023-03-21T12:46:30;15.80;1.00
1429;DHT22;708;51.442;7.016;2023-03-21T12:49:01;15.70;1.00
1429;DHT22;708;51.442;7.016;2023-03-21T12:51:30;15.30;99.90
1429;DHT22;708;51.442;7.016;2023-03-21T12:54:04;15.10;99.90
1429;DHT22;708;51.442;7.016;2023-03-21T12:56:36;15.10;95.90
1429;DHT22;708;51.442;7.016;2023-03-21T12:59:13;15.10;1.00
1429;DHT22;708;51.442;7.016;2023-03-21T13:01:42;15.10;1.00
1429;DHT22;708;51.442;7.016;2023-03-21T13:04:37;15.30;1.00
1429;DHT22;708;51.442;7.016;2023-03-21T13:07:11;15.40;99.90
1429;DHT22;708;51.442;7.016;2023-03-21T13:09:40;15.50;99.90
1429;DHT22;708;51.442;7.016;2023-03-21T13:12:30;15.60;99.90
1429;DHT22;708;51.442;7.016;2023-03-21T13:15:11;15.70;56.60
1429;DHT22;708;51.442;7.016;2023-03-21T13:17:47;15.90;1.00
1429;DHT22;708;51.442;7.016;2023-03-21T13:20:23;15.90;1.00
1429;DHT22;708;51.442;7.016;2023-03-21T13:22:52;16.10;1.00
1429;DHT22;708;51.442;7.016;2023-03-21T13:25:20;16.10;1.00
1429;DHT22;708;51.442;7.016;2023-03-21T13:27:52;16.10;1.00
1429;DHT22;708;51.442;7.016;2023-03-21T13:30:22;15.90;1.00
1429;DHT22;708;51.442;7.016;2023-03-21T13:32:54;16.10;1.00
1429;DHT22;708;51.442;7.016;2023-03-21T13:35:30;16.00;1.00
1429;DHT22;708;51.442;7.016;2023-03-21T13:38:02;16.00;1.00
1429;DHT22;708;51.442;7.016;2023-03-21T13:40:40;16.00;1.00
1429;DHT22;708;51.442;7.016;2023-03-21T13:43:40;16.10;1.00
1429;DHT22;708;51.442;7.016;2023-03-21T13:46:10;15.90;1.00
1429;DHT22;708;51.442;7.016;2023-03-21T13:48:43;15.90;1.00
1429;DHT22;708;51.442;7.016;2023-03-21T13:51:10;15.90;1.00
1429;DHT22;708;51.442;7.016;2023-03-21T13:53:37;16.00;1.00
1429;DHT22;708;51.442;7.016;2023-03-21T13:56:22;16.10;1.00
1429;DHT22;708;51.442;7.016;2023-03-21T13:58:59;16.10;99.90
1429;DHT22;708;51.442;7.016;2023-03-21T14:01:32;16.10;99.90
1429;DHT22;708;51.442;7.016;2023-03-21T14:04:12;16.40;99.90
1429;DHT22;708;51.442;7.016;2023-03-21T14:06:46;16.40;99.90
1429;DHT22;708;51.442;7.016;2023-03-21T14:09:19;16.50;99.90
1429;DHT22;708;51.442;7.016;2023-03-21T14:11:47;16.30;99.90
1429;DHT22;708;51.442;7.016;2023-03-21T14:14:16;16.30;99.90
1429;DHT22;708;51.442;7.016;2023-03-21T14:16:44;16.30;99.90
1429;DHT22;708;51.442;7.016;2023-03-21T14:19:11;16.30;99.90
1429;DHT22;708;51.442;7.016;2023-03-21T14:21:46;16.40;99.90
1429;DHT22;708;51.442;7.016;2023-03-21T14:24:16;16.50;99.90
1429;DHT22;708;51.442;7.016;2023-03-21T14:26:45;16.40;99.90
1429;DHT22;708;51.442;7.016;2023-03-21T14:29:19;16.40;99.90
1429;DHT22;708;51.442;7.016;2023-03-21T14:31:47;16.30;99.90
1429;DHT22;708;51.442;7.016;2023-03-21T14:34:15;16.20;99.90
1429;DHT22;708;51.442;7.016;2023-03-21T14:36:42;16.00;99.90
1429;DHT22;708;51.442;7.016;2023-03-21T14:39:14;16.00;99.90
1429;DHT22;708;51.442;7.016;2023-03-21T14:41:46;15.90;99.90
1429;DHT22;708;51.442;7.016;2023-03-21T14:44:16;16.00;99.90
1429;DHT22;708;51.442;7.016;2023-03-21T14:46:52;16.10;99.90
1429;DHT22;708;51.442;7.016;2023-03-21T14:49:23;16.00;99.90
1429;DHT22;708;51.442;7.016;2023-03-21T14:51:52;15.90;99.90
1429;DHT22;708;51.442;7.016;2023-03-21T14:54:21;15.80;99.90
1429;DHT22;708;51.442;7.016;2023-03-21T14:56:51;15.90;99.90
1429;DHT22;708;51.442;7.016;2023-03-21T14:59:21;15.90;99.90
1429;DHT22;708;51.442;7.016;2023-03-21T15:01:54;15.70;99.90
1429;DHT22;708;51.442;7.016;2023-03-21T15:04:21;15.70;99.90
1429;DHT22;708;51.442;7.016;2023-03-21T15:06:49;15.70;99.90
1429;DHT22;708;51.442;7.016;2023-03-21T15:09:17;15.70;99.90
1429;DHT22;708;51.442;7.016;2023-03-21T15:11:49;15.50;99.90
1429;DHT22;708;51.442;7.016;2023-03-21T15:14:18;15.50;99.90
1429;DHT22;708;51.442;7.016;2023-03-21T15:16:46;15.50;99.90
1429;DHT22;708;51.442;7.016;2023-03-21T15:19:17;15.50;99.90
1429;DHT22;708;51.442;7.016;2023-03-21T15:21:47;15.50;99.90
1429;DHT22;708;51.442;7.016;2023-03-21T15:24:19;15.50;99.90
1429;DHT22;708;51.442;7.016;2023-03-21T15:26:48;15.40;99.90
1429;DHT22;708;51.442;7.016;2023-03-21T15:29:16;15.40;1.00
1429;DHT22;708;51.442;7.016;2023-03-21T15:31:46;15.40;99.90
1429;DHT22;708;51.442;7.016;2023-03-21T15:34:20;15.50;99.90
1429;DHT22;708;51.442;7.016;2023-03-21T15:36:48;15.60;99.90
1429;DHT22;708;51.442;7.016;2023-03-21T15:39:18;15.60;99.90
1429;DHT22;708;51.442;7.016;2023-03-21T15:41:59;15.70;99.90
1429;DHT22;708;51.442;7.016;2023-03-21T15:44:26;15.70;99.90
1429;DHT22;708;51.442;7.016;2023-03-21T15:46:54;15.80;99.90
1429;DHT22;708;51.442;7.016;2023-03-21T15:49:26;15.70;99.90
1429;DHT22;708;51.442;7.016;2023-03-21T15:51:58;15.70;99.90
1429;DHT22;708;51.442;7.016;2023-03-21T15:54:28;15.80;99.90
1429;DHT22;708;51.442;7.016;2023-03-21T15:56:56;15.70;99.90
1429;DHT22;708;51.442;7.016;2023-03-21T15:59:28;15.60;99.90
1429;DHT22;708;51.442;7.016;2023-03-21T16:01:55;15.60;99.90
1429;DHT22;708;51.442;7.016;2023-03-21T16:04:24;15.60;99.90
1429;DHT22;708;51.442;7.016;2023-03-21T16:06:56;15.50;99.90
1429;DHT22;708;51.442;7.016;2023-03-21T16:09:24;15.50;99.90
1429;DHT22;708;51.442;7.016;2023-03-21T16:11:52;15.40;99.90
1429;DHT22;708;51.442;7.016;2023-03-21T16:14:20;15.20;1.00
1429;DHT22;708;51.442;7.016;2023-03-21T16:16:47;15.10;1.00
1429;DHT22;708;51.442;7.016;2023-03-21T16:19:16;15.10;1.00
1429;DHT22;708;51.442;7.016;2023-03-21T16:21:44;15.00;1.00
1429;DHT22;708;51.442;7.016;2023-03-21T16:24:11;14.90;1.00
1429;DHT22;708;51.442;7.016;2023-03-21T16:26:40;14.90;1.00
1429;DHT22;708;51.442;7.016;2023-03-21T16:29:11;15.10;1.00
1429;DHT22;708;51.442;7.016;2023-03-21T16:31:38;15.10;1.00
1429;DHT22;708;51.442;7.016;2023-03-21T16:34:05;15.10;1.00
1429;DHT22;708;51.442;7.016;2023-03-21T16:36:34;15.10;1.00
1429;DHT22;708;51.442;7.016;2023-03-21T16:39:10;15.00;1.00
1429;DHT22;708;51.442;7.016;2023-03-21T16:41:41;15.00;1.00
1429;DHT22;708;51.442;7.016;2023-03-21T16:44:07;14.90;1.00
1429;DHT22;708;51.442;7.016;2023-03-21T16:46:37;14.80;1.00
1429;DHT22;708;51.442;7.016;2023-03-21T16:49:04;14.70;1.00
1429;DHT22;708;51.442;7.016;2023-03-21T16:51:40;14.70;1.00